Terminal Aerodrome Forecast
Issued by NWS

Home | Current Version | Previous Version | Graphics & Text | Print | Product List | Glossary On
Versions: 1 2 3 4 5 6 7 8 9 10 11 12 13 14 15 16 17 18 19
000
FTUS43 KBIS 171500 AAD
TAFDIK
TAF AMD
KDIK 171529Z 1715/1812 21007KT P6SM BKN100
     FM171900 24009KT P6SM VCTS SCT090CB
      TEMPO 1719/1721 4SM TSRA BKN060CB
     FM172200 26010KT P6SM BKN080=

USA.gov is the U.S. government's official web portal to all federal, state and local government web resources and services.